Time;durP1;ratioP1;P1;durP2;ratioP2;P2;SDS_P1;SDS_P2;PMS_P1;PMS_P2;Temp;Humidity;BMP_temperature;BMP_pressure;BME280_temperature;BME280_humidity;BME280_pressure;Samples;Min_cycle;Max_cycle;Signal;HPM_P1;HPM_P2
2022/11/08 00:02:51;;;;;;;3.87;1.87;;;;;;;13.83;79.06;100972.25;6076875;29;20331;-75
2022/11/08 00:17:08;;;;;;;4.50;1.63;;;;;;;13.89;79.02;100967.06;6084212;29;20630;-76
2022/11/08 00:20:29;;;;;;;5.00;1.10;;;;;;;13.85;79.27;100981.91;6060555;29;21688;-75
2022/11/08 00:23:50;;;;;;;3.17;1.47;;;;;;;13.89;78.90;100990.59;6072854;29;20236;-76
2022/11/08 00:27:13;;;;;;;3.07;1.17;;;;;;;13.90;78.79;100986.84;6087566;29;20263;-76
2022/11/08 00:30:34;;;;;;;2.83;1.33;;;;;;;13.92;78.58;100988.41;6075460;29;22104;-76
2022/11/08 00:33:56;;;;;;;2.37;2.17;;;;;;;13.86;78.97;100990.88;6066879;29;20509;-76
2022/11/08 00:37:18;;;;;;;2.37;1.77;;;;;;;13.82;79.25;100979.50;6084357;29;20232;-76
2022/11/08 00:40:39;;;;;;;1.27;0.87;;;;;;;13.86;78.90;100983.63;6070043;29;20237;-77
2022/11/08 00:43:59;;;;;;;3.07;1.27;;;;;;;13.80;79.43;100989.66;6068998;29;20310;-75
2022/11/08 00:47:20;;;;;;;3.00;1.53;;;;;;;13.76;79.32;100990.13;6087805;29;20232;-76
2022/11/08 00:50:43;;;;;;;1.50;1.20;;;;;;;13.70;79.71;100979.91;6077144;29;20236;-75
2022/11/08 00:54:04;;;;;;;1.33;1.00;;;;;;;13.73;79.80;100979.56;6077152;29;20232;-78
2022/11/08 00:57:25;;;;;;;2.33;0.93;;;;;;;13.73;79.51;100988.56;6092785;29;20513;-75
2022/11/08 01:00:46;;;;;;;1.80;1.20;;;;;;;13.70;79.60;100988.88;6077425;29;20240;-76
2022/11/08 01:04:08;;;;;;;4.00;1.90;;;;;;;13.71;79.55;100981.56;6080256;29;20232;-76
2022/11/08 01:07:30;;;;;;;2.47;1.10;;;;;;;13.67;79.63;100981.03;6086435;29;20225;-76
2022/11/08 01:10:51;;;;;;;5.43;1.17;;;;;;;13.66;79.70;100982.06;6078054;29;20236;-76
2022/11/08 01:14:13;;;;;;;2.40;1.40;;;;;;;13.59;79.83;100984.53;6044759;29;20928;-75
2022/11/08 01:17:35;;;;;;;1.90;1.80;;;;;;;13.61;79.59;100981.66;6086269;29;20255;-75
2022/11/08 01:20:55;;;;;;;1.80;1.13;;;;;;;13.66;79.47;100984.78;6066851;29;20307;-76
2022/11/08 01:24:20;;;;;;;3.30;1.40;;;;;;;13.68;79.68;100981.91;6075391;29;20248;-75
2022/11/08 01:27:41;;;;;;;3.43;1.20;;;;;;;13.67;79.32;100982.88;6086123;29;20228;-76
2022/11/08 01:31:04;;;;;;;2.97;0.93;;;;;;;13.67;79.46;100981.03;6078084;29;20232;-77
2022/11/08 01:34:25;;;;;;;1.33;1.10;;;;;;;13.60;79.49;100978.09;6078731;29;20504;-79
2022/11/08 01:37:46;;;;;;;2.40;1.03;;;;;;;13.56;79.78;100979.41;6088882;29;20292;-76
2022/11/08 01:41:12;;;;;;;1.60;1.13;;;;;;;13.53;80.13;100979.72;6089032;29;20252;-76
2022/11/08 01:44:32;;;;;;;2.27;1.77;;;;;;;13.54;79.76;100969.72;6073920;29;20237;-76
2022/11/08 01:47:53;;;;;;;1.43;0.93;;;;;;;13.49;79.99;100975.63;6092894;29;20237;-75
2022/11/08 01:51:18;;;;;;;6.37;1.50;;;;;;;13.59;79.88;100973.69;6088017;29;20236;-75
2022/11/08 01:54:46;;;;;;;1.60;1.30;;;;;;;13.58;79.66;100971.97;6077011;29;20236;-76
2022/11/08 01:58:12;;;;;;;1.63;1.17;;;;;;;13.56;79.66;100965.00;6062792;29;20236;-76
2022/11/08 02:01:34;;;;;;;1.90;1.17;;;;;;;13.50;79.94;100968.31;6074780;29;20231;-77
2022/11/08 02:04:56;;;;;;;4.80;1.73;;;;;;;13.42;80.22;100971.81;6078370;29;20232;-75
2022/11/08 02:08:22;;;;;;;3.57;1.37;;;;;;;13.43;80.28;100969.97;6070991;29;20616;-75
2022/11/08 02:11:44;;;;;;;3.03;2.40;;;;;;;13.44;80.15;100960.81;6088376;29;20323;-74
2022/11/08 02:15:08;;;;;;;4.90;1.27;;;;;;;13.53;79.79;100957.19;6077224;29;20228;-76
2022/11/08 02:18:32;;;;;;;1.17;1.07;;;;;;;13.48;79.89;100952.25;6077929;29;20237;-75
2022/11/08 02:21:56;;;;;;;1.87;1.50;;;;;;;13.53;79.69;100966.19;6087886;29;20236;-75
2022/11/08 02:25:19;;;;;;;4.30;2.60;;;;;;;13.54;79.49;100956.19;6066360;29;20343;-75
2022/11/08 02:28:40;;;;;;;2.20;1.30;;;;;;;13.55;79.58;100952.47;6079792;29;20233;-76
2022/11/08 02:32:03;;;;;;;3.70;1.10;;;;;;;13.55;79.41;100958.75;6086267;29;20240;-75
2022/11/08 02:35:25;;;;;;;1.87;1.47;;;;;;;13.58;79.44;100954.84;6077897;29;20260;-75
2022/11/08 02:38:51;;;;;;;2.10;1.90;;;;;;;13.59;79.36;100956.59;6079362;29;20229;-80
2022/11/08 02:42:14;;;;;;;2.07;1.87;;;;;;;13.69;78.64;100959.22;6069936;29;20244;-74
2022/11/08 02:45:35;;;;;;;6.00;1.87;;;;;;;13.64;78.80;100959.69;6075141;29;20374;-76
2022/11/08 02:48:56;;;;;;;4.13;1.10;;;;;;;13.64;79.11;100956.97;6079841;29;20240;-75
2022/11/08 02:52:17;;;;;;;1.53;1.07;;;;;;;13.71;78.48;100947.22;6070851;29;20240;-75
2022/11/08 02:55:38;;;;;;;1.50;1.20;;;;;;;13.68;78.70;100949.41;6078417;29;20228;-75
2022/11/08 02:59:01;;;;;;;5.03;3.43;;;;;;;13.67;78.91;100948.53;6082402;29;20565;-75
2022/11/08 03:02:22;;;;;;;1.43;1.30;;;;;;;13.74;78.46;100955.06;6072364;29;20512;-75
2022/11/08 03:05:43;;;;;;;3.60;1.90;;;;;;;13.72;78.21;100953.50;6079344;29;20233;-75
2022/11/08 03:09:06;;;;;;;2.70;1.50;;;;;;;13.71;78.68;100952.63;6081869;29;20229;-75
2022/11/08 03:12:27;;;;;;;4.47;2.20;;;;;;;13.69;78.46;100949.22;6085544;29;20494;-76
2022/11/08 03:15:49;;;;;;;1.90;1.37;;;;;;;13.67;78.62;100955.81;6078284;29;20225;-78
2022/11/08 03:19:11;;;;;;;4.33;1.57;;;;;;;13.66;78.73;100963.09;6078540;29;20230;-79
2022/11/08 03:22:32;;;;;;;2.20;1.00;;;;;;;13.66;78.56;100957.69;6084436;29;20240;-78
2022/11/08 03:25:54;;;;;;;5.77;2.13;;;;;;;13.59;78.98;100959.28;6056066;29;20240;-76
2022/11/08 03:29:14;;;;;;;1.60;0.90;;;;;;;13.58;78.84;100955.72;6072138;29;20238;-75
2022/11/08 03:32:37;;;;;;;2.17;1.27;;;;;;;13.64;78.18;100954.28;6086887;29;20240;-78
2022/11/08 03:35:59;;;;;;;1.30;0.70;;;;;;;13.55;78.99;100956.03;6074598;29;20233;-75
2022/11/08 03:39:20;;;;;;;3.70;1.90;;;;;;;13.51;79.22;100964.63;6060575;29;20229;-75
2022/11/08 03:42:40;;;;;;;4.53;1.10;;;;;;;13.43;79.04;100956.41;6084027;29;20236;-75
2022/11/08 03:46:01;;;;;;;1.30;1.07;;;;;;;13.42;79.24;100957.41;6077680;29;20903;-75
2022/11/08 03:49:24;;;;;;;1.50;1.00;;;;;;;13.39;79.45;100953.13;6077407;29;20256;-75
2022/11/08 03:52:46;;;;;;;1.63;0.90;;;;;;;13.35;79.62;100957.16;6080999;29;20225;-74
2022/11/08 03:56:08;;;;;;;3.37;1.20;;;;;;;13.22;80.06;100959.41;6083617;29;20240;-74
2022/11/08 03:59:29;;;;;;;3.10;1.83;;;;;;;13.17;80.71;100966.25;6073147;29;20228;-74
2022/11/08 04:02:50;;;;;;;2.37;1.47;;;;;;;13.10;80.86;100963.28;6083342;29;20495;-75
2022/11/08 04:06:12;;;;;;;2.97;1.10;;;;;;;13.04;81.22;100960.31;6075253;29;20318;-74
2022/11/08 04:09:33;;;;;;;2.13;1.13;;;;;;;13.04;81.13;100968.44;6072710;29;20237;-75
2022/11/08 04:16:33;;;;;;;1.63;0.90;;;;;;;12.99;81.51;100951.78;6086093;29;20712;-75
2022/11/08 04:23:35;;;;;;;2.80;1.30;;;;;;;12.90;81.86;100949.97;6070673;29;20228;-74
2022/11/08 04:26:56;;;;;;;5.30;2.07;;;;;;;12.83;81.75;100952.41;6072452;29;20232;-75
2022/11/08 04:30:17;;;;;;;2.37;1.13;;;;;;;12.81;82.19;100951.69;6071617;29;20232;-75
2022/11/08 04:33:38;;;;;;;3.23;1.43;;;;;;;12.79;81.72;100946.44;6075742;29;20244;-75
2022/11/08 04:36:58;;;;;;;1.33;1.23;;;;;;;12.71;82.23;100935.53;6082748;29;20736;-76
2022/11/08 04:40:21;;;;;;;1.90;1.30;;;;;;;12.68;82.49;100946.63;6074691;29;20252;-74
2022/11/08 04:43:42;;;;;;;1.57;1.17;;;;;;;12.67;82.61;100946.78;6069126;29;20228;-76
2022/11/08 04:47:04;;;;;;;1.57;0.80;;;;;;;12.63;82.25;100948.09;6069437;29;20240;-76
2022/11/08 04:50:24;;;;;;;1.23;1.13;;;;;;;12.53;82.69;100950.84;6070066;29;20635;-75
2022/11/08 04:53:46;;;;;;;1.27;1.07;;;;;;;12.53;82.71;100953.53;6063239;29;20836;-75
2022/11/08 04:57:08;;;;;;;7.33;2.40;;;;;;;12.45;83.31;100950.72;6082481;29;20236;-75
2022/11/08 05:00:29;;;;;;;1.57;1.47;;;;;;;12.42;83.89;100948.28;6073616;29;20232;-75
2022/11/08 05:03:52;;;;;;;3.03;1.90;;;;;;;12.37;83.38;100945.16;6069125;29;20237;-76
2022/11/08 05:07:12;;;;;;;3.57;2.23;;;;;;;12.31;84.18;100948.44;6081237;29;20232;-75
2022/11/08 05:10:33;;;;;;;2.07;1.33;;;;;;;12.25;84.11;100951.75;6071137;29;20232;-75
2022/11/08 05:13:56;;;;;;;2.63;1.53;;;;;;;12.26;84.03;100950.75;6070498;29;20232;-75
2022/11/08 05:17:17;;;;;;;5.20;2.40;;;;;;;12.18;84.04;100955.19;6079181;29;20256;-76
2022/11/08 05:24:19;;;;;;;2.20;1.17;;;;;;;12.06;85.20;100942.81;6055312;29;20240;-76
2022/11/08 05:27:40;;;;;;;14.93;1.97;;;;;;;12.02;85.34;100945.78;6087713;29;20244;-74
2022/11/08 05:31:05;;;;;;;5.90;1.60;;;;;;;11.92;85.40;100942.25;6069564;29;20563;-75
2022/11/08 05:34:25;;;;;;;2.03;1.90;;;;;;;11.88;85.83;100939.97;6069892;29;20225;-75
2022/11/08 05:37:46;;;;;;;2.27;1.67;;;;;;;11.81;86.02;100947.78;6088081;29;20236;-75
2022/11/08 05:41:10;;;;;;;1.97;1.80;;;;;;;11.80;86.01;100946.09;6079569;29;20232;-75
2022/11/08 05:44:31;;;;;;;4.27;1.73;;;;;;;11.79;85.66;100946.22;6075842;29;20236;-75
2022/11/08 05:47:53;;;;;;;15.97;1.70;;;;;;;11.76;85.70;100942.00;6079844;29;20237;-75
2022/11/08 05:51:15;;;;;;;2.57;1.20;;;;;;;11.74;85.96;100937.72;6087963;29;20236;-76
2022/11/08 05:54:35;;;;;;;1.87;1.73;;;;;;;11.74;85.75;100941.28;6073640;29;20251;-75
2022/11/08 05:57:56;;;;;;;3.37;2.80;;;;;;;11.72;86.26;100934.31;6074596;29;20324;-75
2022/11/08 06:01:19;;;;;;;6.93;1.30;;;;;;;11.71;85.90;100930.75;6070009;29;20252;-75
2022/11/08 06:04:42;;;;;;;1.37;1.20;;;;;;;11.72;85.22;100920.81;6074118;29;20382;-74
2022/11/08 06:08:03;;;;;;;2.10;1.43;;;;;;;11.69;85.55;100926.47;6078436;29;20244;-75
2022/11/08 06:11:26;;;;;;;1.83;1.63;;;;;;;11.69;85.64;100927.34;6076439;29;20232;-78
2022/11/08 06:14:47;;;;;;;3.97;1.37;;;;;;;11.64;85.85;100928.72;6048385;29;20232;-75
2022/11/08 06:18:08;;;;;;;2.63;1.80;;;;;;;11.66;85.47;100927.59;6067495;29;20252;-74
2022/11/08 06:21:30;;;;;;;1.33;1.23;;;;;;;11.74;85.61;100918.81;6082522;29;20224;-75
2022/11/08 06:24:51;;;;;;;6.23;3.20;;;;;;;11.71;85.50;100929.88;6059177;29;20244;-74
2022/11/08 06:28:12;;;;;;;2.10;1.37;;;;;;;11.77;84.53;100921.22;6069254;29;20540;-74
2022/11/08 06:31:32;;;;;;;5.37;2.43;;;;;;;11.75;84.85;100917.81;6086732;29;20315;-74
2022/11/08 06:34:53;;;;;;;5.33;2.67;;;;;;;11.78;84.62;100926.50;6074677;29;20326;-75
2022/11/08 06:38:15;;;;;;;2.17;1.63;;;;;;;11.79;84.57;100919.22;6060561;29;20247;-74
2022/11/08 06:41:36;;;;;;;4.27;1.83;;;;;;;11.74;84.14;100916.09;6087390;29;20232;-74
2022/11/08 06:44:57;;;;;;;1.57;1.47;;;;;;;11.70;84.53;100920.91;6079406;29;20604;-74
2022/11/08 06:48:18;;;;;;;4.53;1.73;;;;;;;11.78;84.19;100917.53;6061667;29;20323;-74
2022/11/08 06:51:39;;;;;;;3.23;1.40;;;;;;;11.76;84.11;100916.81;6088842;29;20232;-75
2022/11/08 06:55:01;;;;;;;1.70;1.37;;;;;;;11.72;83.86;100915.41;6078421;29;20240;-75
2022/11/08 06:58:22;;;;;;;4.77;1.70;;;;;;;11.79;84.26;100925.47;6069593;29;20237;-75
2022/11/08 07:01:43;;;;;;;3.37;1.37;;;;;;;11.76;84.39;100927.63;6081913;29;21538;-75
2022/11/08 07:05:04;;;;;;;4.63;1.50;;;;;;;11.65;85.49;100925.88;6075394;29;20236;-74
2022/11/08 07:08:25;;;;;;;3.00;1.50;;;;;;;11.66;85.35;100926.75;6070188;29;20249;-74
2022/11/08 07:11:47;;;;;;;1.83;1.60;;;;;;;11.66;84.83;100922.19;6085363;29;20232;-73
2022/11/08 07:15:08;;;;;;;2.00;1.40;;;;;;;11.66;85.24;100921.34;6071954;29;20256;-74
2022/11/08 07:18:29;;;;;;;2.97;1.60;;;;;;;11.61;85.69;100927.16;6068687;29;21075;-74
2022/11/08 07:21:50;;;;;;;3.70;1.93;;;;;;;11.71;84.99;100919.09;6078875;29;20228;-75
2022/11/08 07:25:11;;;;;;;2.33;2.13;;;;;;;11.75;84.21;100912.41;6071461;29;20233;-75
2022/11/08 07:28:33;;;;;;;2.97;2.70;;;;;;;11.75;84.02;100923.19;6070242;29;20262;-78
2022/11/08 07:31:54;;;;;;;4.57;1.97;;;;;;;11.92;84.17;100922.50;6073961;29;20229;-77
2022/11/08 07:35:15;;;;;;;2.20;1.47;;;;;;;12.00;83.01;100911.81;6061680;29;20678;-75
2022/11/08 07:38:36;;;;;;;2.47;1.83;;;;;;;11.98;83.47;100914.66;6071389;29;20236;-75
2022/11/08 07:41:57;;;;;;;2.60;1.63;;;;;;;12.16;82.93;100916.63;6074376;29;20232;-76
2022/11/08 07:45:25;;;;;;;2.37;2.17;;;;;;;12.17;82.09;100919.19;6048538;29;20520;-75
2022/11/08 07:48:45;;;;;;;8.00;2.47;;;;;;;12.31;81.03;100916.00;6063277;29;20232;-78
2022/11/08 07:52:06;;;;;;;2.67;2.47;;;;;;;12.58;80.21;100902.53;6078783;29;20236;-77
2022/11/08 07:55:27;;;;;;;2.37;2.13;;;;;;;12.57;80.50;100905.41;6065795;29;20244;-76
2022/11/08 07:58:48;;;;;;;4.40;2.10;;;;;;;12.75;80.00;100900.91;6069839;29;20529;-76
2022/11/08 08:02:11;;;;;;;1.23;1.00;;;;;;;12.48;80.35;100901.72;6089895;29;20237;-78
2022/11/08 08:05:34;;;;;;;3.03;1.33;;;;;;;12.69;79.10;100905.06;6074816;29;20229;-80
2022/11/08 08:08:55;;;;;;;3.10;2.20;;;;;;;12.73;78.42;100901.06;6067146;29;20555;-78
2022/11/08 08:12:16;;;;;;;2.37;1.30;;;;;;;12.64;79.10;100901.13;6085888;29;20225;-78
2022/11/08 08:15:37;;;;;;;2.87;1.47;;;;;;;12.90;78.11;100909.38;6078079;29;20228;-79
2022/11/08 08:18:59;;;;;;;3.40;1.77;;;;;;;12.78;78.71;100908.75;6077437;29;20264;-79
2022/11/08 08:22:20;;;;;;;3.50;2.50;;;;;;;12.75;78.55;100907.19;6067513;29;20260;-75
2022/11/08 08:25:41;;;;;;;4.67;2.13;;;;;;;13.78;76.75;100906.81;6074030;29;20324;-75
2022/11/08 08:29:02;;;;;;;3.13;1.30;;;;;;;14.97;70.97;100905.06;6074569;29;20244;-75
2022/11/08 08:32:23;;;;;;;3.33;1.93;;;;;;;16.21;66.15;100902.25;6084999;29;20641;-74
2022/11/08 08:35:45;;;;;;;3.43;1.60;;;;;;;18.15;58.68;100897.53;6073816;29;20251;-75
2022/11/08 08:39:06;;;;;;;2.43;1.40;;;;;;;17.68;59.96;100886.00;6072579;29;20316;-74
2022/11/08 08:42:28;;;;;;;1.30;1.17;;;;;;;16.58;63.22;100895.19;6080623;29;20256;-75
2022/11/08 08:45:49;;;;;;;7.68;1.17;;;;;;;16.46;63.20;100898.44;6070820;29;20244;-75
2022/11/08 08:49:10;;;;;;;3.63;1.10;;;;;;;16.21;64.63;100900.34;6075337;29;20236;-76
2022/11/08 08:52:32;;;;;;;3.15;1.48;;;;;;;17.80;60.52;100888.13;6080729;29;20260;-75
2022/11/08 08:55:53;;;;;;;1.02;0.90;;;;;;;18.33;58.85;100877.06;6067929;29;20228;-80
2022/11/08 08:59:14;;;;;;;1.15;1.00;;;;;;;17.90;58.26;100871.53;6066308;29;20693;-77
2022/11/08 09:02:35;;;;;;;1.73;1.02;;;;;;;16.71;62.06;100864.69;6080998;29;20252;-78
2022/11/08 09:05:57;;;;;;;2.20;1.65;;;;;;;19.07;54.65;100856.91;6073846;29;20517;-79
2022/11/08 09:09:19;;;;;;;5.97;1.20;;;;;;;20.31;49.84;100857.38;6053091;29;20647;-80
2022/11/08 09:12:40;;;;;;;3.35;1.00;;;;;;;18.81;54.08;100861.19;6085009;29;20228;-83
2022/11/08 09:16:02;;;;;;;3.40;1.27;;;;;;;17.65;57.66;100843.56;6078184;29;20228;-77
2022/11/08 09:19:23;;;;;;;1.27;0.77;;;;;;;18.16;56.81;100848.25;6076357;29;20236;-79
2022/11/08 09:22:44;;;;;;;2.08;1.75;;;;;;;19.45;53.28;100843.06;6091388;29;20504;-78
2022/11/08 09:26:06;;;;;;;2.78;1.02;;;;;;;19.31;52.90;100852.16;6064368;29;20232;-79
2022/11/08 09:29:27;;;;;;;1.95;0.90;;;;;;;18.68;54.88;100842.75;6079755;29;20243;-84
2022/11/08 09:32:48;;;;;;;1.05;0.80;;;;;;;19.28;53.50;100827.91;6091640;29;20236;-80
2022/11/08 09:36:13;;;;;;;2.40;1.13;;;;;;;18.18;55.89;100828.94;6078468;29;20781;-80
2022/11/08 09:39:34;;;;;;;2.72;1.38;;;;;;;16.61;60.47;100836.84;6076600;29;20386;-81
2022/11/08 09:43:12;;;;;;;1.20;0.90;;;;;;;17.19;58.57;100829.06;6074246;29;20222;-81
2022/11/08 09:46:40;;;;;;;1.35;1.23;;;;;;;16.40;61.21;100833.81;6088784;29;20237;-83
2022/11/08 09:50:11;;;;;;;3.13;1.80;;;;;;;17.36;58.38;100827.06;6083596;29;20244;-80
2022/11/08 09:53:36;;;;;;;1.95;1.55;;;;;;;17.77;57.01;100828.50;6075039;29;20232;-79
2022/11/08 09:56:58;;;;;;;1.13;0.90;;;;;;;16.83;60.47;100830.63;6089176;29;20236;-77
2022/11/08 10:00:21;;;;;;;1.00;0.88;;;;;;;15.85;63.18;100831.06;6074845;29;20237;-80
2022/11/08 10:03:47;;;;;;;0.82;0.82;;;;;;;15.98;63.89;100832.22;6059910;29;20528;-79
2022/11/08 10:07:22;;;;;;;1.30;1.10;;;;;;;15.81;64.12;100835.13;6088765;29;20339;-78
2022/11/08 10:11:02;;;;;;;2.72;1.30;;;;;;;15.36;66.10;100816.56;6076639;29;20240;-79
2022/11/08 10:14:36;;;;;;;3.80;1.27;;;;;;;15.52;65.36;100818.50;6077019;29;20232;-79
2022/11/08 10:18:34;;;;;;;2.07;1.50;;;;;;;15.90;64.53;100810.47;6086661;29;20252;-78
2022/11/08 10:21:59;;;;;;;3.75;1.35;;;;;;;15.52;65.62;100794.03;6077151;29;20240;-79
2022/11/08 10:25:24;;;;;;;1.03;0.90;;;;;;;15.89;63.65;100789.75;6067074;29;20311;-80
2022/11/08 10:28:50;;;;;;;1.63;1.30;;;;;;;15.85;64.50;100774.78;6071484;29;20229;-77
2022/11/08 10:32:18;;;;;;;2.60;1.00;;;;;;;16.58;61.76;100769.16;6091380;29;20237;-81
2022/11/08 10:35:45;;;;;;;2.33;1.13;;;;;;;17.75;57.93;100758.81;6080602;29;20260;-82
2022/11/08 10:39:14;;;;;;;4.00;1.70;;;;;;;18.64;55.17;100753.19;6076845;29;20236;-79
2022/11/08 10:42:43;;;;;;;2.47;1.60;;;;;;;18.26;57.67;100749.72;6084497;29;20348;-80
2022/11/08 10:46:05;;;;;;;4.10;1.30;;;;;;;16.92;60.05;100736.13;6064683;29;20239;-85
2022/11/08 10:49:27;;;;;;;1.92;1.38;;;;;;;17.95;57.65;100740.84;6080297;29;20256;-80
2022/11/08 10:52:57;;;;;;;1.33;1.00;;;;;;;17.88;57.19;100729.00;6090500;29;20315;-79
2022/11/08 10:56:19;;;;;;;1.85;1.55;;;;;;;18.24;56.11;100714.44;6066469;29;20982;-82
2022/11/08 10:59:41;;;;;;;1.70;1.60;;;;;;;17.34;59.02;100717.38;6072187;29;20225;-79
2022/11/08 11:03:27;;;;;;;4.53;1.63;;;;;;;18.04;57.63;100699.69;6067176;29;20232;-78
2022/11/08 11:06:48;;;;;;;2.47;1.42;;;;;;;18.20;57.41;100706.81;6066632;29;20674;-77
2022/11/08 11:10:23;;;;;;;1.40;1.27;;;;;;;17.55;58.94;100698.50;6070695;29;20269;-79
2022/11/08 11:13:44;;;;;;;6.18;1.75;;;;;;;17.48;59.03;100698.34;6068964;29;20237;-78
2022/11/08 11:17:15;;;;;;;1.63;1.52;;;;;;;17.92;58.25;100706.63;6082661;29;20249;-79
2022/11/08 11:20:36;;;;;;;2.53;1.08;;;;;;;17.33;59.59;100699.38;6080117;29;20319;-76
2022/11/08 11:24:07;;;;;;;2.17;1.60;;;;;;;17.38;59.23;100696.91;6079378;29;20591;-78
2022/11/08 11:27:33;;;;;;;2.33;2.10;;;;;;;17.70;57.21;100712.16;6086875;29;20248;-76
2022/11/08 11:31:00;;;;;;;4.13;0.90;;;;;;;18.29;56.58;100701.03;6074890;29;20240;-76
2022/11/08 11:34:35;;;;;;;2.50;0.80;;;;;;;18.90;53.99;100698.88;6078768;29;20679;-76
2022/11/08 11:38:00;;;;;;;3.47;1.23;;;;;;;20.47;50.29;100705.53;6092313;29;20227;-75
2022/11/08 11:41:30;;;;;;;3.53;1.45;;;;;;;19.27;53.63;100693.13;6070344;29;20305;-76
2022/11/08 11:45:02;;;;;;;3.90;0.80;;;;;;;18.85;54.38;100694.00;6077059;29;20304;-75
2022/11/08 11:48:27;;;;;;;1.08;1.00;;;;;;;18.05;55.51;100689.59;6056367;29;20396;-76
2022/11/08 11:51:51;;;;;;;1.40;1.00;;;;;;;18.50;55.26;100689.38;6087256;29;20311;-76
2022/11/08 11:55:14;;;;;;;0.98;0.90;;;;;;;19.45;52.56;100673.53;6079864;29;20312;-75
2022/11/08 11:58:51;;;;;;;0.70;0.65;;;;;;;17.53;57.07;100668.69;6079443;29;20236;-75
2022/11/08 12:02:43;;;;;;;3.05;1.00;;;;;;;17.26;58.37;100661.09;6084824;29;20232;-75
2022/11/08 12:06:19;;;;;;;3.40;1.05;;;;;;;17.90;56.21;100645.13;6060765;29;20232;-75
2022/11/08 12:09:59;;;;;;;1.10;1.00;;;;;;;17.70;56.59;100646.69;6076796;29;20232;-75
2022/11/08 12:13:29;;;;;;;1.13;1.05;;;;;;;18.18;55.01;100638.78;6078169;29;20236;-75
2022/11/08 12:17:01;;;;;;;2.67;1.35;;;;;;;17.01;58.17;100632.38;6088702;29;20236;-76
2022/11/08 12:20:48;;;;;;;1.50;1.17;;;;;;;16.90;58.77;100621.09;6074530;29;20240;-76
2022/11/08 12:24:27;;;;;;;1.15;0.82;;;;;;;17.17;58.17;100618.59;6075073;29;20245;-77
2022/11/08 12:27:51;;;;;;;2.83;1.08;;;;;;;16.75;58.71;100621.84;6095912;29;20235;-77
2022/11/08 12:31:22;;;;;;;1.35;1.25;;;;;;;16.63;59.02;100617.03;6086758;29;21013;-77
2022/11/08 12:34:57;;;;;;;5.85;1.10;;;;;;;16.70;58.95;100623.44;6079795;29;20627;-76
2022/11/08 12:38:32;;;;;;;1.00;0.73;;;;;;;16.50;59.51;100616.81;6080847;29;20233;-74
2022/11/08 12:42:03;;;;;;;2.63;1.33;;;;;;;16.35;60.13;100618.56;6081067;29;20240;-79
2022/11/08 12:45:44;;;;;;;0.90;0.87;;;;;;;16.26;60.61;100611.47;6075482;29;20335;-79
2022/11/08 12:49:19;;;;;;;1.93;1.20;;;;;;;16.12;60.54;100607.66;6064123;29;20236;-79
2022/11/08 12:52:53;;;;;;;1.30;0.57;;;;;;;16.14;60.03;100607.47;6092149;29;20248;-76
2022/11/08 12:56:21;;;;;;;1.30;1.20;;;;;;;16.13;60.69;100620.22;6087574;29;20320;-75
2022/11/08 12:59:45;;;;;;;2.50;1.20;;;;;;;16.11;60.11;100608.66;6076820;29;20232;-78
2022/11/08 13:03:20;;;;;;;2.50;1.00;;;;;;;16.02;60.15;100594.25;6072112;29;20241;-83
2022/11/08 13:06:46;;;;;;;2.17;1.10;;;;;;;16.05;60.18;100601.22;6086104;29;20228;-78
2022/11/08 13:10:15;;;;;;;1.87;1.27;;;;;;;16.09;60.24;100588.09;6072029;29;20249;-77
2022/11/08 13:13:48;;;;;;;2.37;0.80;;;;;;;15.89;60.35;100607.59;6077650;29;20248;-79
2022/11/08 13:17:16;;;;;;;1.67;0.80;;;;;;;15.85;60.55;100616.28;6084254;29;20236;-79
2022/11/08 13:20:40;;;;;;;1.57;1.30;;;;;;;15.89;60.05;100599.44;6076276;29;20240;-82
2022/11/08 13:24:35;;;;;;;1.77;1.30;;;;;;;16.17;60.53;100602.50;6078080;29;20257;-78
2022/11/08 13:27:56;;;;;;;1.00;1.00;;;;;;;16.03;60.13;100595.09;6084469;29;20910;-79
2022/11/08 13:31:32;;;;;;;1.13;1.00;;;;;;;16.27;60.14;100594.13;6074519;29;20311;-76
2022/11/08 13:35:01;;;;;;;3.10;1.40;;;;;;;16.28;59.52;100593.94;6066465;29;20233;-79
2022/11/08 13:38:35;;;;;;;1.53;1.00;;;;;;;16.23;59.44;100587.34;6080715;29;20224;-79
2022/11/08 13:42:24;;;;;;;0.93;0.90;;;;;;;16.17;59.79;100588.03;6073017;29;20614;-78
2022/11/08 13:45:46;;;;;;;1.07;1.07;;;;;;;16.26;60.16;100585.13;6078894;29;20225;-77
2022/11/08 13:49:19;;;;;;;1.70;0.80;;;;;;;16.20;60.42;100577.69;6068808;29;20233;-79
2022/11/08 13:52:45;;;;;;;3.50;2.23;;;;;;;16.03;60.74;100570.63;6082822;29;20253;-76
2022/11/08 13:56:41;;;;;;;4.90;1.97;;;;;;;16.18;60.15;100587.88;6073833;29;20260;-78
2022/11/08 14:00:02;;;;;;;1.77;1.30;;;;;;;16.07;61.08;100571.97;6076952;29;20244;-79
2022/11/08 14:03:52;;;;;;;3.07;1.30;;;;;;;15.97;60.65;100580.38;6080406;29;20240;-82
2022/11/08 14:07:26;;;;;;;1.43;1.20;;;;;;;15.90;60.90;100575.78;6072052;29;20248;-78
2022/11/08 14:11:11;;;;;;;1.07;0.70;;;;;;;15.95;61.19;100567.97;6055779;29;20236;-78
2022/11/08 14:14:40;;;;;;;1.83;0.90;;;;;;;15.89;60.90;100574.97;6079340;29;20308;-77
2022/11/08 14:18:06;;;;;;;1.43;1.30;;;;;;;15.76;61.36;100582.84;6089270;29;20225;-78
2022/11/08 14:21:27;;;;;;;1.83;0.87;;;;;;;15.73;61.56;100571.44;6090713;29;20233;-79
2022/11/08 14:24:51;;;;;;;4.23;1.60;;;;;;;15.79;61.97;100559.91;6058275;29;20228;-78
2022/11/08 14:28:23;;;;;;;2.30;1.03;;;;;;;15.67;61.70;100572.16;6080174;29;20225;-76
2022/11/08 14:31:44;;;;;;;5.37;1.30;;;;;;;15.65;62.08;100566.91;6092615;29;20529;-79
2022/11/08 14:35:21;;;;;;;1.17;0.80;;;;;;;15.60;61.76;100558.47;6075015;29;20244;-79
2022/11/08 14:38:47;;;;;;;3.17;1.23;;;;;;;15.61;62.16;100572.88;6077262;29;20236;-77
2022/11/08 14:42:20;;;;;;;1.70;0.97;;;;;;;15.65;61.51;100564.19;6084987;29;20683;-80
2022/11/08 14:45:43;;;;;;;2.40;1.20;;;;;;;15.64;62.13;100562.53;6080767;29;20234;-80
2022/11/08 14:49:09;;;;;;;0.73;0.70;;;;;;;15.60;61.82;100563.03;6069404;29;20229;-81
2022/11/08 14:52:31;;;;;;;1.60;0.80;;;;;;;15.57;61.63;100564.22;6094064;29;20240;-77
2022/11/08 14:55:57;;;;;;;1.17;0.80;;;;;;;15.53;62.25;100552.03;6078133;29;20603;-77
2022/11/08 14:59:21;;;;;;;0.53;0.53;;;;;;;15.49;61.80;100564.28;6075095;29;20240;-78
2022/11/08 15:02:45;;;;;;;2.70;0.83;;;;;;;15.45;62.30;100562.06;6088446;29;20256;-78
2022/11/08 15:06:10;;;;;;;4.23;0.90;;;;;;;15.45;62.45;100553.91;6082913;29;21772;-80
2022/11/08 15:09:33;;;;;;;1.70;1.60;;;;;;;15.42;61.98;100555.09;6068615;29;20229;-80
2022/11/08 15:12:55;;;;;;;2.10;1.10;;;;;;;15.42;62.01;100548.78;6069342;29;20229;-80
2022/11/08 15:16:18;;;;;;;3.97;2.10;;;;;;;15.38;62.16;100545.59;6085574;29;20654;-80
2022/11/08 15:19:41;;;;;;;2.83;1.23;;;;;;;15.36;62.58;100544.91;6084894;29;20271;-79
2022/11/08 15:23:02;;;;;;;2.33;0.67;;;;;;;15.33;62.80;100536.28;6089152;29;20220;-80
2022/11/08 15:26:27;;;;;;;3.50;1.37;;;;;;;15.25;63.78;100528.16;6089070;29;20233;-80
2022/11/08 15:29:49;;;;;;;1.90;1.17;;;;;;;15.23;63.32;100521.03;6081286;29;20308;-80
2022/11/08 15:33:22;;;;;;;0.80;0.80;;;;;;;15.18;63.15;100522.59;6082111;29;20245;-80
2022/11/08 15:36:43;;;;;;;3.20;0.90;;;;;;;15.15;63.64;100528.34;6061205;29;20235;-80
2022/11/08 15:40:07;;;;;;;2.40;0.70;;;;;;;15.16;63.16;100517.31;6070379;29;20337;-79
2022/11/08 15:43:37;;;;;;;1.00;0.73;;;;;;;15.16;63.38;100535.47;6068815;29;20240;-78
2022/11/08 15:46:59;;;;;;;4.37;1.33;;;;;;;15.17;63.61;100532.59;6084369;29;20782;-79
2022/11/08 15:50:22;;;;;;;2.23;1.27;;;;;;;15.18;63.41;100525.28;6064100;29;20236;-78
2022/11/08 15:53:43;;;;;;;2.73;1.67;;;;;;;15.19;63.17;100527.81;6068469;29;20228;-78
2022/11/08 15:57:05;;;;;;;2.20;0.90;;;;;;;15.20;62.53;100532.25;6079008;29;20225;-78
2022/11/08 16:00:29;;;;;;;5.47;1.87;;;;;;;15.19;62.77;100527.81;6073598;29;20237;-76
2022/11/08 16:03:51;;;;;;;1.50;1.23;;;;;;;15.20;62.47;100523.25;6065033;29;20241;-76
2022/11/08 16:07:13;;;;;;;0.97;0.87;;;;;;;15.20;61.99;100521.38;6083916;29;20232;-78
2022/11/08 16:10:38;;;;;;;1.40;0.80;;;;;;;15.18;62.15;100512.56;6075368;29;20236;-78
2022/11/08 16:13:59;;;;;;;1.47;1.30;;;;;;;15.17;61.98;100516.28;6078987;29;20244;-78